sensor_id;sensor_type;location;lat;lon;timestamp;P1;durP1;ratioP1;P2;durP2;ratioP2
74904;SDS011;63465;50.862;6.220;2024-01-30T00:01:00;9.90;;;5.97;;
74904;SDS011;63465;50.862;6.220;2024-01-30T00:03:26;9.23;;;5.93;;
74904;SDS011;63465;50.862;6.220;2024-01-30T00:05:51;11.40;;;5.87;;
74904;SDS011;63465;50.862;6.220;2024-01-30T00:08:17;6.50;;;4.80;;
74904;SDS011;63465;50.862;6.220;2024-01-30T00:10:42;10.17;;;5.63;;
74904;SDS011;63465;50.862;6.220;2024-01-30T00:13:08;11.37;;;5.33;;
74904;SDS011;63465;50.862;6.220;2024-01-30T00:15:33;6.97;;;5.17;;
74904;SDS011;63465;50.862;6.220;2024-01-30T00:17:59;7.80;;;5.00;;
74904;SDS011;63465;50.862;6.220;2024-01-30T00:20:25;6.90;;;4.80;;
74904;SDS011;63465;50.862;6.220;2024-01-30T00:22:50;7.50;;;4.60;;
74904;SDS011;63465;50.862;6.220;2024-01-30T00:25:15;6.90;;;4.80;;
74904;SDS011;63465;50.862;6.220;2024-01-30T00:27:41;5.90;;;4.33;;
74904;SDS011;63465;50.862;6.220;2024-01-30T00:30:06;6.23;;;4.27;;
74904;SDS011;63465;50.862;6.220;2024-01-30T00:32:32;7.93;;;4.97;;
74904;SDS011;63465;50.862;6.220;2024-01-30T00:34:57;9.00;;;5.40;;
74904;SDS011;63465;50.862;6.220;2024-01-30T00:37:23;6.67;;;4.37;;
74904;SDS011;63465;50.862;6.220;2024-01-30T00:39:48;6.20;;;4.90;;
74904;SDS011;63465;50.862;6.220;2024-01-30T00:42:14;5.67;;;4.83;;
74904;SDS011;63465;50.862;6.220;2024-01-30T00:44:39;5.47;;;4.40;;
74904;SDS011;63465;50.862;6.220;2024-01-30T00:47:05;5.77;;;4.47;;
74904;SDS011;63465;50.862;6.220;2024-01-30T00:49:30;7.20;;;4.80;;
74904;SDS011;63465;50.862;6.220;2024-01-30T00:51:56;6.77;;;4.63;;
74904;SDS011;63465;50.862;6.220;2024-01-30T00:54:21;8.33;;;4.90;;
74904;SDS011;63465;50.862;6.220;2024-01-30T00:56:46;8.27;;;5.47;;
74904;SDS011;63465;50.862;6.220;2024-01-30T00:59:12;5.53;;;4.77;;
74904;SDS011;63465;50.862;6.220;2024-01-30T01:01:37;6.90;;;4.90;;
74904;SDS011;63465;50.862;6.220;2024-01-30T01:04:02;9.90;;;5.17;;
74904;SDS011;63465;50.862;6.220;2024-01-30T01:06:28;6.47;;;5.27;;
74904;SDS011;63465;50.862;6.220;2024-01-30T01:08:53;9.33;;;4.40;;
74904;SDS011;63465;50.862;6.220;2024-01-30T01:11:18;7.57;;;4.50;;
74904;SDS011;63465;50.862;6.220;2024-01-30T01:13:43;6.13;;;4.50;;
74904;SDS011;63465;50.862;6.220;2024-01-30T01:16:09;7.60;;;4.90;;
74904;SDS011;63465;50.862;6.220;2024-01-30T01:18:34;6.27;;;4.90;;
74904;SDS011;63465;50.862;6.220;2024-01-30T01:20:59;6.83;;;5.00;;
74904;SDS011;63465;50.862;6.220;2024-01-30T01:23:25;6.90;;;4.63;;
74904;SDS011;63465;50.862;6.220;2024-01-30T01:25:51;8.97;;;4.70;;
74904;SDS011;63465;50.862;6.220;2024-01-30T01:28:16;7.77;;;4.70;;
74904;SDS011;63465;50.862;6.220;2024-01-30T01:30:41;7.43;;;4.87;;
74904;SDS011;63465;50.862;6.220;2024-01-30T01:33:07;6.70;;;4.53;;
74904;SDS011;63465;50.862;6.220;2024-01-30T01:35:32;4.93;;;4.43;;
74904;SDS011;63465;50.862;6.220;2024-01-30T01:37:57;5.93;;;4.20;;
74904;SDS011;63465;50.862;6.220;2024-01-30T01:40:25;5.43;;;4.63;;
74904;SDS011;63465;50.862;6.220;2024-01-30T01:42:51;6.50;;;4.90;;
74904;SDS011;63465;50.862;6.220;2024-01-30T01:45:17;8.27;;;4.30;;
74904;SDS011;63465;50.862;6.220;2024-01-30T01:47:43;5.60;;;4.43;;
74904;SDS011;63465;50.862;6.220;2024-01-30T01:50:11;6.20;;;4.00;;
74904;SDS011;63465;50.862;6.220;2024-01-30T01:52:38;4.17;;;3.57;;
74904;SDS011;63465;50.862;6.220;2024-01-30T01:55:05;7.47;;;4.53;;
74904;SDS011;63465;50.862;6.220;2024-01-30T01:57:31;4.70;;;3.23;;
74904;SDS011;63465;50.862;6.220;2024-01-30T01:59:56;5.23;;;3.37;;
74904;SDS011;63465;50.862;6.220;2024-01-30T02:02:22;6.80;;;4.07;;
74904;SDS011;63465;50.862;6.220;2024-01-30T02:04:50;5.33;;;3.63;;
74904;SDS011;63465;50.862;6.220;2024-01-30T02:07:16;4.13;;;3.70;;
74904;SDS011;63465;50.862;6.220;2024-01-30T02:09:42;7.60;;;4.37;;
74904;SDS011;63465;50.862;6.220;2024-01-30T02:12:07;4.80;;;4.20;;
74904;SDS011;63465;50.862;6.220;2024-01-30T02:14:32;6.33;;;3.93;;
74904;SDS011;63465;50.862;6.220;2024-01-30T02:16:58;4.17;;;3.47;;
74904;SDS011;63465;50.862;6.220;2024-01-30T02:19:23;4.87;;;3.70;;
74904;SDS011;63465;50.862;6.220;2024-01-30T02:21:48;5.10;;;4.27;;
74904;SDS011;63465;50.862;6.220;2024-01-30T02:24:14;5.43;;;3.60;;
74904;SDS011;63465;50.862;6.220;2024-01-30T02:26:40;7.10;;;3.83;;
74904;SDS011;63465;50.862;6.220;2024-01-30T02:29:05;8.17;;;3.90;;
74904;SDS011;63465;50.862;6.220;2024-01-30T02:31:31;7.00;;;3.90;;
74904;SDS011;63465;50.862;6.220;2024-01-30T02:33:56;3.70;;;3.17;;
74904;SDS011;63465;50.862;6.220;2024-01-30T02:36:21;5.27;;;3.73;;
74904;SDS011;63465;50.862;6.220;2024-01-30T02:38:47;6.33;;;3.90;;
74904;SDS011;63465;50.862;6.220;2024-01-30T02:41:12;6.43;;;3.27;;
74904;SDS011;63465;50.862;6.220;2024-01-30T02:43:37;5.60;;;3.90;;
74904;SDS011;63465;50.862;6.220;2024-01-30T02:46:03;5.10;;;3.50;;
74904;SDS011;63465;50.862;6.220;2024-01-30T02:48:28;4.87;;;3.13;;
74904;SDS011;63465;50.862;6.220;2024-01-30T02:50:54;3.77;;;2.70;;
74904;SDS011;63465;50.862;6.220;2024-01-30T02:53:19;4.40;;;3.40;;
74904;SDS011;63465;50.862;6.220;2024-01-30T02:55:44;2.87;;;2.57;;
74904;SDS011;63465;50.862;6.220;2024-01-30T02:58:09;4.53;;;3.40;;
74904;SDS011;63465;50.862;6.220;2024-01-30T03:00:35;3.53;;;3.07;;
74904;SDS011;63465;50.862;6.220;2024-01-30T03:03:00;4.33;;;3.93;;
74904;SDS011;63465;50.862;6.220;2024-01-30T03:05:25;3.43;;;2.77;;
74904;SDS011;63465;50.862;6.220;2024-01-30T03:07:51;7.87;;;3.30;;
74904;SDS011;63465;50.862;6.220;2024-01-30T03:10:16;4.90;;;3.07;;
74904;SDS011;63465;50.862;6.220;2024-01-30T03:12:41;5.60;;;3.43;;
74904;SDS011;63465;50.862;6.220;2024-01-30T03:15:06;4.80;;;3.40;;
74904;SDS011;63465;50.862;6.220;2024-01-30T03:17:32;5.70;;;3.60;;
74904;SDS011;63465;50.862;6.220;2024-01-30T03:19:57;4.60;;;3.37;;
74904;SDS011;63465;50.862;6.220;2024-01-30T03:22:23;5.47;;;3.00;;
74904;SDS011;63465;50.862;6.220;2024-01-30T03:24:48;5.37;;;3.10;;
74904;SDS011;63465;50.862;6.220;2024-01-30T03:27:14;6.10;;;3.53;;
74904;SDS011;63465;50.862;6.220;2024-01-30T03:29:39;4.50;;;3.77;;
74904;SDS011;63465;50.862;6.220;2024-01-30T03:32:04;7.43;;;3.23;;
74904;SDS011;63465;50.862;6.220;2024-01-30T03:34:30;3.90;;;3.47;;
74904;SDS011;63465;50.862;6.220;2024-01-30T03:36:55;4.00;;;3.20;;
74904;SDS011;63465;50.862;6.220;2024-01-30T03:39:20;3.00;;;2.70;;
74904;SDS011;63465;50.862;6.220;2024-01-30T03:41:46;3.93;;;3.50;;
74904;SDS011;63465;50.862;6.220;2024-01-30T03:44:11;4.97;;;3.60;;
74904;SDS011;63465;50.862;6.220;2024-01-30T03:46:36;3.60;;;3.10;;
74904;SDS011;63465;50.862;6.220;2024-01-30T03:49:02;3.93;;;3.40;;
74904;SDS011;63465;50.862;6.220;2024-01-30T03:51:28;4.07;;;3.23;;
74904;SDS011;63465;50.862;6.220;2024-01-30T03:53:53;5.00;;;3.10;;
74904;SDS011;63465;50.862;6.220;2024-01-30T03:56:18;4.27;;;3.30;;
74904;SDS011;63465;50.862;6.220;2024-01-30T03:58:44;2.77;;;2.47;;
74904;SDS011;63465;50.862;6.220;2024-01-30T04:01:12;4.70;;;4.20;;
74904;SDS011;63465;50.862;6.220;2024-01-30T04:03:41;3.50;;;3.20;;
74904;SDS011;63465;50.862;6.220;2024-01-30T04:06:07;4.70;;;3.27;;
74904;SDS011;63465;50.862;6.220;2024-01-30T04:08:33;3.63;;;3.20;;
74904;SDS011;63465;50.862;6.220;2024-01-30T04:10:58;3.13;;;2.47;;
74904;SDS011;63465;50.862;6.220;2024-01-30T04:13:23;3.40;;;3.00;;
74904;SDS011;63465;50.862;6.220;2024-01-30T04:15:48;3.53;;;3.23;;
74904;SDS011;63465;50.862;6.220;2024-01-30T04:18:14;5.73;;;3.77;;
74904;SDS011;63465;50.862;6.220;2024-01-30T04:20:39;5.30;;;3.20;;
74904;SDS011;63465;50.862;6.220;2024-01-30T04:23:04;5.67;;;3.40;;
74904;SDS011;63465;50.862;6.220;2024-01-30T04:25:29;3.60;;;2.87;;
74904;SDS011;63465;50.862;6.220;2024-01-30T04:27:55;5.27;;;3.20;;
74904;SDS011;63465;50.862;6.220;2024-01-30T04:30:20;5.23;;;3.10;;
74904;SDS011;63465;50.862;6.220;2024-01-30T04:32:45;6.97;;;2.87;;
74904;SDS011;63465;50.862;6.220;2024-01-30T04:35:10;8.77;;;3.10;;
74904;SDS011;63465;50.862;6.220;2024-01-30T04:37:36;6.20;;;2.97;;
74904;SDS011;63465;50.862;6.220;2024-01-30T04:40:01;2.63;;;2.40;;
74904;SDS011;63465;50.862;6.220;2024-01-30T04:42:28;3.50;;;2.73;;
74904;SDS011;63465;50.862;6.220;2024-01-30T04:44:53;5.77;;;4.20;;
74904;SDS011;63465;50.862;6.220;2024-01-30T04:47:18;5.03;;;3.30;;
74904;SDS011;63465;50.862;6.220;2024-01-30T04:49:44;4.17;;;2.93;;
74904;SDS011;63465;50.862;6.220;2024-01-30T04:52:09;6.60;;;3.50;;
74904;SDS011;63465;50.862;6.220;2024-01-30T04:54:35;4.70;;;3.17;;
74904;SDS011;63465;50.862;6.220;2024-01-30T04:57:01;3.63;;;3.00;;
74904;SDS011;63465;50.862;6.220;2024-01-30T04:59:26;7.13;;;3.37;;
74904;SDS011;63465;50.862;6.220;2024-01-30T05:01:52;2.97;;;2.67;;
74904;SDS011;63465;50.862;6.220;2024-01-30T05:04:17;5.57;;;3.40;;
74904;SDS011;63465;50.862;6.220;2024-01-30T05:06:42;2.73;;;2.27;;
74904;SDS011;63465;50.862;6.220;2024-01-30T05:09:08;7.87;;;3.20;;
74904;SDS011;63465;50.862;6.220;2024-01-30T05:11:40;3.00;;;2.70;;
74904;SDS011;63465;50.862;6.220;2024-01-30T05:14:06;6.20;;;3.50;;
74904;SDS011;63465;50.862;6.220;2024-01-30T05:16:32;6.90;;;3.67;;
74904;SDS011;63465;50.862;6.220;2024-01-30T05:18:58;3.93;;;3.17;;
74904;SDS011;63465;50.862;6.220;2024-01-30T05:21:24;6.37;;;3.27;;
74904;SDS011;63465;50.862;6.220;2024-01-30T05:23:49;4.90;;;3.57;;
74904;SDS011;63465;50.862;6.220;2024-01-30T05:26:14;4.90;;;3.10;;
74904;SDS011;63465;50.862;6.220;2024-01-30T05:28:39;4.03;;;3.33;;
74904;SDS011;63465;50.862;6.220;2024-01-30T05:31:05;5.07;;;3.43;;
74904;SDS011;63465;50.862;6.220;2024-01-30T05:33:30;3.50;;;3.20;;
74904;SDS011;63465;50.862;6.220;2024-01-30T05:35:55;1.73;;;1.60;;
74904;SDS011;63465;50.862;6.220;2024-01-30T05:38:21;9.70;;;3.17;;
74904;SDS011;63465;50.862;6.220;2024-01-30T05:40:46;3.97;;;2.53;;
74904;SDS011;63465;50.862;6.220;2024-01-30T05:43:11;3.40;;;2.87;;
74904;SDS011;63465;50.862;6.220;2024-01-30T05:45:37;4.40;;;3.00;;
74904;SDS011;63465;50.862;6.220;2024-01-30T05:48:02;10.00;;;3.40;;
74904;SDS011;63465;50.862;6.220;2024-01-30T05:50:28;1.37;;;1.27;;
74904;SDS011;63465;50.862;6.220;2024-01-30T05:52:53;5.23;;;3.40;;
74904;SDS011;63465;50.862;6.220;2024-01-30T05:55:18;4.30;;;3.53;;
74904;SDS011;63465;50.862;6.220;2024-01-30T05:57:44;3.77;;;2.87;;
74904;SDS011;63465;50.862;6.220;2024-01-30T06:00:09;3.77;;;3.00;;
74904;SDS011;63465;50.862;6.220;2024-01-30T06:02:35;7.07;;;3.50;;
74904;SDS011;63465;50.862;6.220;2024-01-30T06:05:00;3.77;;;3.47;;
74904;SDS011;63465;50.862;6.220;2024-01-30T06:07:26;7.30;;;3.80;;
74904;SDS011;63465;50.862;6.220;2024-01-30T06:09:51;3.37;;;3.00;;
74904;SDS011;63465;50.862;6.220;2024-01-30T06:12:16;4.60;;;3.50;;
74904;SDS011;63465;50.862;6.220;2024-01-30T06:14:42;6.27;;;4.23;;
74904;SDS011;63465;50.862;6.220;2024-01-30T06:17:07;6.47;;;3.53;;
74904;SDS011;63465;50.862;6.220;2024-01-30T06:19:33;6.20;;;3.70;;
74904;SDS011;63465;50.862;6.220;2024-01-30T06:21:58;4.17;;;3.70;;
74904;SDS011;63465;50.862;6.220;2024-01-30T06:24:24;5.10;;;3.73;;
74904;SDS011;63465;50.862;6.220;2024-01-30T06:26:49;5.83;;;4.20;;
74904;SDS011;63465;50.862;6.220;2024-01-30T06:29:14;3.93;;;3.53;;
74904;SDS011;63465;50.862;6.220;2024-01-30T06:31:41;4.93;;;3.83;;
74904;SDS011;63465;50.862;6.220;2024-01-30T06:34:07;3.83;;;3.50;;
74904;SDS011;63465;50.862;6.220;2024-01-30T06:36:34;5.00;;;3.47;;
74904;SDS011;63465;50.862;6.220;2024-01-30T06:38:59;5.60;;;3.70;;
74904;SDS011;63465;50.862;6.220;2024-01-30T06:41:24;8.57;;;3.90;;
74904;SDS011;63465;50.862;6.220;2024-01-30T06:43:50;5.63;;;4.03;;
74904;SDS011;63465;50.862;6.220;2024-01-30T06:46:15;13.73;;;3.37;;
74904;SDS011;63465;50.862;6.220;2024-01-30T06:48:40;7.50;;;3.30;;
74904;SDS011;63465;50.862;6.220;2024-01-30T06:51:06;3.90;;;3.50;;
74904;SDS011;63465;50.862;6.220;2024-01-30T06:53:31;5.00;;;3.03;;
74904;SDS011;63465;50.862;6.220;2024-01-30T06:55:56;5.83;;;3.60;;
74904;SDS011;63465;50.862;6.220;2024-01-30T06:58:22;6.47;;;3.67;;
74904;SDS011;63465;50.862;6.220;2024-01-30T07:00:47;4.50;;;3.20;;
74904;SDS011;63465;50.862;6.220;2024-01-30T07:03:12;4.60;;;3.43;;
74904;SDS011;63465;50.862;6.220;2024-01-30T07:05:38;11.83;;;4.13;;
74904;SDS011;63465;50.862;6.220;2024-01-30T07:08:03;5.20;;;3.53;;
74904;SDS011;63465;50.862;6.220;2024-01-30T07:10:29;4.90;;;3.80;;
74904;SDS011;63465;50.862;6.220;2024-01-30T07:12:54;6.30;;;4.20;;
74904;SDS011;63465;50.862;6.220;2024-01-30T07:15:19;4.43;;;3.63;;
74904;SDS011;63465;50.862;6.220;2024-01-30T07:17:45;7.20;;;3.50;;
74904;SDS011;63465;50.862;6.220;2024-01-30T07:20:11;5.63;;;3.53;;
74904;SDS011;63465;50.862;6.220;2024-01-30T07:22:36;5.90;;;3.47;;
74904;SDS011;63465;50.862;6.220;2024-01-30T07:25:01;3.70;;;2.80;;
74904;SDS011;63465;50.862;6.220;2024-01-30T07:27:27;8.97;;;3.50;;
74904;SDS011;63465;50.862;6.220;2024-01-30T07:29:52;4.73;;;3.50;;
74904;SDS011;63465;50.862;6.220;2024-01-30T07:32:17;7.80;;;3.50;;
74904;SDS011;63465;50.862;6.220;2024-01-30T07:34:43;6.37;;;3.67;;
74904;SDS011;63465;50.862;6.220;2024-01-30T07:37:09;4.50;;;3.50;;
74904;SDS011;63465;50.862;6.220;2024-01-30T07:39:35;3.47;;;3.10;;
74904;SDS011;63465;50.862;6.220;2024-01-30T07:42:00;5.03;;;3.80;;
74904;SDS011;63465;50.862;6.220;2024-01-30T07:44:26;3.23;;;2.93;;
74904;SDS011;63465;50.862;6.220;2024-01-30T07:46:51;5.73;;;3.60;;
74904;SDS011;63465;50.862;6.220;2024-01-30T07:49:17;7.80;;;4.37;;
74904;SDS011;63465;50.862;6.220;2024-01-30T07:51:42;4.90;;;4.23;;
74904;SDS011;63465;50.862;6.220;2024-01-30T07:54:08;8.50;;;3.80;;
74904;SDS011;63465;50.862;6.220;2024-01-30T07:56:33;5.87;;;3.80;;
74904;SDS011;63465;50.862;6.220;2024-01-30T07:58:58;5.80;;;3.57;;
74904;SDS011;63465;50.862;6.220;2024-01-30T08:01:24;5.13;;;4.20;;
74904;SDS011;63465;50.862;6.220;2024-01-30T08:03:49;8.03;;;3.87;;
74904;SDS011;63465;50.862;6.220;2024-01-30T08:06:14;6.50;;;3.73;;
74904;SDS011;63465;50.862;6.220;2024-01-30T08:08:40;6.07;;;3.70;;
74904;SDS011;63465;50.862;6.220;2024-01-30T08:11:05;8.40;;;4.20;;
74904;SDS011;63465;50.862;6.220;2024-01-30T08:13:30;6.13;;;3.87;;
74904;SDS011;63465;50.862;6.220;2024-01-30T08:15:56;7.50;;;3.90;;
74904;SDS011;63465;50.862;6.220;2024-01-30T08:18:21;5.90;;;3.67;;
74904;SDS011;63465;50.862;6.220;2024-01-30T08:20:46;17.27;;;4.10;;
74904;SDS011;63465;50.862;6.220;2024-01-30T08:23:11;5.53;;;3.93;;
74904;SDS011;63465;50.862;6.220;2024-01-30T08:25:37;6.53;;;4.10;;
74904;SDS011;63465;50.862;6.220;2024-01-30T08:28:02;6.33;;;3.97;;
74904;SDS011;63465;50.862;6.220;2024-01-30T08:30:29;7.40;;;4.03;;
74904;SDS011;63465;50.862;6.220;2024-01-30T08:32:54;6.43;;;3.93;;
74904;SDS011;63465;50.862;6.220;2024-01-30T08:35:19;5.47;;;3.63;;
74904;SDS011;63465;50.862;6.220;2024-01-30T08:37:45;8.60;;;3.93;;
74904;SDS011;63465;50.862;6.220;2024-01-30T08:40:10;6.40;;;4.27;;
74904;SDS011;63465;50.862;6.220;2024-01-30T08:42:35;5.03;;;3.70;;
74904;SDS011;63465;50.862;6.220;2024-01-30T08:45:01;7.17;;;4.87;;
74904;SDS011;63465;50.862;6.220;2024-01-30T08:47:26;6.97;;;3.90;;
74904;SDS011;63465;50.862;6.220;2024-01-30T08:49:52;10.23;;;4.60;;
74904;SDS011;63465;50.862;6.220;2024-01-30T08:52:17;7.23;;;4.10;;
74904;SDS011;63465;50.862;6.220;2024-01-30T08:54:42;7.87;;;4.40;;
74904;SDS011;63465;50.862;6.220;2024-01-30T08:57:08;13.13;;;4.70;;
74904;SDS011;63465;50.862;6.220;2024-01-30T08:59:33;7.23;;;4.80;;
74904;SDS011;63465;50.862;6.220;2024-01-30T09:01:58;5.67;;;4.10;;
74904;SDS011;63465;50.862;6.220;2024-01-30T09:04:24;11.00;;;5.07;;
74904;SDS011;63465;50.862;6.220;2024-01-30T09:06:49;6.20;;;4.17;;
74904;SDS011;63465;50.862;6.220;2024-01-30T09:09:15;8.27;;;4.93;;
74904;SDS011;63465;50.862;6.220;2024-01-30T09:11:40;8.03;;;4.40;;
74904;SDS011;63465;50.862;6.220;2024-01-30T09:14:06;10.87;;;4.90;;
74904;SDS011;63465;50.862;6.220;2024-01-30T09:16:31;6.33;;;4.33;;
74904;SDS011;63465;50.862;6.220;2024-01-30T09:18:56;5.60;;;4.03;;
74904;SDS011;63465;50.862;6.220;2024-01-30T09:21:22;11.20;;;4.30;;
74904;SDS011;63465;50.862;6.220;2024-01-30T09:23:48;8.20;;;4.17;;
74904;SDS011;63465;50.862;6.220;2024-01-30T09:26:13;15.07;;;4.63;;
74904;SDS011;63465;50.862;6.220;2024-01-30T09:28:38;7.63;;;4.30;;
74904;SDS011;63465;50.862;6.220;2024-01-30T09:31:03;7.00;;;4.27;;
74904;SDS011;63465;50.862;6.220;2024-01-30T09:33:29;5.33;;;4.10;;
74904;SDS011;63465;50.862;6.220;2024-01-30T09:35:54;7.07;;;4.37;;
74904;SDS011;63465;50.862;6.220;2024-01-30T09:38:19;7.47;;;4.73;;
74904;SDS011;63465;50.862;6.220;2024-01-30T09:40:45;5.73;;;4.60;;
74904;SDS011;63465;50.862;6.220;2024-01-30T09:43:18;9.23;;;4.57;;
74904;SDS011;63465;50.862;6.220;2024-01-30T09:45:48;8.83;;;4.73;;
74904;SDS011;63465;50.862;6.220;2024-01-30T09:48:15;11.87;;;4.47;;
74904;SDS011;63465;50.862;6.220;2024-01-30T09:50:40;14.63;;;4.70;;
74904;SDS011;63465;50.862;6.220;2024-01-30T09:53:06;9.40;;;5.13;;
74904;SDS011;63465;50.862;6.220;2024-01-30T09:55:33;6.83;;;4.00;;
74904;SDS011;63465;50.862;6.220;2024-01-30T09:58:00;5.50;;;3.40;;
74904;SDS011;63465;50.862;6.220;2024-01-30T10:00:26;8.23;;;3.70;;
74904;SDS011;63465;50.862;6.220;2024-01-30T10:02:52;7.33;;;4.50;;
74904;SDS011;63465;50.862;6.220;2024-01-30T10:05:18;7.33;;;5.83;;
74904;SDS011;63465;50.862;6.220;2024-01-30T10:07:53;7.80;;;3.77;;
74904;SDS011;63465;50.862;6.220;2024-01-30T10:10:23;12.90;;;4.67;;
74904;SDS011;63465;50.862;6.220;2024-01-30T10:12:48;8.00;;;4.10;;
74904;SDS011;63465;50.862;6.220;2024-01-30T10:15:14;4.30;;;3.50;;
74904;SDS011;63465;50.862;6.220;2024-01-30T10:17:39;12.00;;;4.17;;
74904;SDS011;63465;50.862;6.220;2024-01-30T10:20:05;10.60;;;4.43;;
74904;SDS011;63465;50.862;6.220;2024-01-30T10:22:30;8.83;;;4.57;;
74904;SDS011;63465;50.862;6.220;2024-01-30T10:24:56;9.40;;;4.50;;
74904;SDS011;63465;50.862;6.220;2024-01-30T10:27:27;10.70;;;4.57;;
74904;SDS011;63465;50.862;6.220;2024-01-30T10:29:54;7.00;;;4.20;;
74904;SDS011;63465;50.862;6.220;2024-01-30T10:32:20;11.73;;;4.27;;
74904;SDS011;63465;50.862;6.220;2024-01-30T10:34:46;6.50;;;4.13;;
74904;SDS011;63465;50.862;6.220;2024-01-30T10:37:11;12.43;;;5.20;;
74904;SDS011;63465;50.862;6.220;2024-01-30T10:39:40;4.53;;;3.17;;
74904;SDS011;63465;50.862;6.220;2024-01-30T10:42:06;7.40;;;4.40;;
74904;SDS011;63465;50.862;6.220;2024-01-30T10:44:44;7.10;;;4.03;;
74904;SDS011;63465;50.862;6.220;2024-01-30T10:47:21;9.80;;;4.40;;
74904;SDS011;63465;50.862;6.220;2024-01-30T10:49:51;9.03;;;5.13;;
74904;SDS011;63465;50.862;6.220;2024-01-30T10:52:17;9.17;;;4.20;;
74904;SDS011;63465;50.862;6.220;2024-01-30T10:54:44;8.37;;;5.00;;
74904;SDS011;63465;50.862;6.220;2024-01-30T10:57:10;10.73;;;4.40;;
74904;SDS011;63465;50.862;6.220;2024-01-30T10:59:37;14.07;;;5.53;;
74904;SDS011;63465;50.862;6.220;2024-01-30T11:02:03;4.53;;;3.30;;
74904;SDS011;63465;50.862;6.220;2024-01-30T11:04:54;10.80;;;5.30;;
74904;SDS011;63465;50.862;6.220;2024-01-30T11:07:23;7.97;;;5.00;;
74904;SDS011;63465;50.862;6.220;2024-01-30T11:09:53;11.43;;;4.93;;
74904;SDS011;63465;50.862;6.220;2024-01-30T11:12:27;14.10;;;5.43;;
74904;SDS011;63465;50.862;6.220;2024-01-30T11:15:07;11.00;;;5.00;;
74904;SDS011;63465;50.862;6.220;2024-01-30T11:17:43;9.17;;;5.40;;
74904;SDS011;63465;50.862;6.220;2024-01-30T11:20:14;6.50;;;4.20;;
74904;SDS011;63465;50.862;6.220;2024-01-30T11:22:41;11.10;;;4.67;;
74904;SDS011;63465;50.862;6.220;2024-01-30T11:25:10;8.70;;;4.70;;
74904;SDS011;63465;50.862;6.220;2024-01-30T11:27:37;7.03;;;4.90;;
74904;SDS011;63465;50.862;6.220;2024-01-30T11:30:03;9.53;;;4.80;;
74904;SDS011;63465;50.862;6.220;2024-01-30T11:32:28;7.10;;;4.30;;
74904;SDS011;63465;50.862;6.220;2024-01-30T11:34:54;16.90;;;5.10;;
74904;SDS011;63465;50.862;6.220;2024-01-30T11:37:20;4.90;;;4.13;;
74904;SDS011;63465;50.862;6.220;2024-01-30T11:39:50;9.20;;;5.00;;
74904;SDS011;63465;50.862;6.220;2024-01-30T11:42:16;7.50;;;4.10;;
74904;SDS011;63465;50.862;6.220;2024-01-30T11:44:45;15.07;;;4.97;;
74904;SDS011;63465;50.862;6.220;2024-01-30T11:47:12;9.23;;;5.20;;
74904;SDS011;63465;50.862;6.220;2024-01-30T11:49:37;5.17;;;4.13;;
74904;SDS011;63465;50.862;6.220;2024-01-30T11:52:02;6.70;;;4.50;;
74904;SDS011;63465;50.862;6.220;2024-01-30T11:54:29;8.63;;;4.70;;
74904;SDS011;63465;50.862;6.220;2024-01-30T11:56:54;12.40;;;5.43;;
74904;SDS011;63465;50.862;6.220;2024-01-30T11:59:19;5.93;;;4.17;;
74904;SDS011;63465;50.862;6.220;2024-01-30T12:01:44;13.80;;;5.47;;
74904;SDS011;63465;50.862;6.220;2024-01-30T12:04:10;8.17;;;4.10;;
74904;SDS011;63465;50.862;6.220;2024-01-30T12:06:35;16.50;;;6.00;;
74904;SDS011;63465;50.862;6.220;2024-01-30T12:09:01;8.07;;;5.73;;
74904;SDS011;63465;50.862;6.220;2024-01-30T12:11:42;10.13;;;5.10;;
74904;SDS011;63465;50.862;6.220;2024-01-30T12:14:09;10.67;;;5.40;;
74904;SDS011;63465;50.862;6.220;2024-01-30T12:16:35;8.97;;;4.90;;
74904;SDS011;63465;50.862;6.220;2024-01-30T12:19:00;7.00;;;4.73;;
74904;SDS011;63465;50.862;6.220;2024-01-30T12:21:27;8.63;;;4.90;;
74904;SDS011;63465;50.862;6.220;2024-01-30T12:23:52;7.50;;;5.60;;
74904;SDS011;63465;50.862;6.220;2024-01-30T12:26:17;7.03;;;3.50;;
74904;SDS011;63465;50.862;6.220;2024-01-30T12:28:49;7.33;;;4.70;;
74904;SDS011;63465;50.862;6.220;2024-01-30T12:31:15;5.47;;;3.53;;
74904;SDS011;63465;50.862;6.220;2024-01-30T12:33:40;9.17;;;6.17;;
74904;SDS011;63465;50.862;6.220;2024-01-30T12:36:06;9.07;;;5.80;;
74904;SDS011;63465;50.862;6.220;2024-01-30T12:38:31;12.67;;;4.80;;
74904;SDS011;63465;50.862;6.220;2024-01-30T12:40:57;7.17;;;4.17;;
74904;SDS011;63465;50.862;6.220;2024-01-30T12:43:25;9.67;;;5.20;;
74904;SDS011;63465;50.862;6.220;2024-01-30T12:45:52;16.87;;;5.40;;
74904;SDS011;63465;50.862;6.220;2024-01-30T12:48:17;10.80;;;5.20;;
74904;SDS011;63465;50.862;6.220;2024-01-30T12:50:43;11.00;;;6.10;;
74904;SDS011;63465;50.862;6.220;2024-01-30T12:53:08;9.40;;;5.40;;
74904;SDS011;63465;50.862;6.220;2024-01-30T12:55:34;7.90;;;4.73;;
74904;SDS011;63465;50.862;6.220;2024-01-30T12:57:59;9.07;;;5.73;;
74904;SDS011;63465;50.862;6.220;2024-01-30T13:00:25;7.60;;;5.80;;
74904;SDS011;63465;50.862;6.220;2024-01-30T13:02:50;5.63;;;4.40;;
74904;SDS011;63465;50.862;6.220;2024-01-30T13:05:15;13.73;;;6.60;;
74904;SDS011;63465;50.862;6.220;2024-01-30T13:07:41;11.17;;;6.50;;
74904;SDS011;63465;50.862;6.220;2024-01-30T13:10:06;11.40;;;5.80;;
74904;SDS011;63465;50.862;6.220;2024-01-30T13:12:31;14.07;;;6.80;;
74904;SDS011;63465;50.862;6.220;2024-01-30T13:14:58;9.03;;;5.80;;
74904;SDS011;63465;50.862;6.220;2024-01-30T13:17:25;11.80;;;6.57;;
74904;SDS011;63465;50.862;6.220;2024-01-30T13:19:51;10.00;;;5.80;;
74904;SDS011;63465;50.862;6.220;2024-01-30T13:22:16;10.37;;;5.63;;
74904;SDS011;63465;50.862;6.220;2024-01-30T13:24:41;13.80;;;5.70;;
74904;SDS011;63465;50.862;6.220;2024-01-30T13:27:07;10.23;;;5.40;;
74904;SDS011;63465;50.862;6.220;2024-01-30T13:29:33;12.70;;;6.10;;
74904;SDS011;63465;50.862;6.220;2024-01-30T13:31:59;10.10;;;6.30;;
74904;SDS011;63465;50.862;6.220;2024-01-30T13:34:24;14.17;;;6.67;;
74904;SDS011;63465;50.862;6.220;2024-01-30T13:36:50;9.17;;;5.53;;
74904;SDS011;63465;50.862;6.220;2024-01-30T13:39:15;8.43;;;4.87;;
74904;SDS011;63465;50.862;6.220;2024-01-30T13:41:43;9.23;;;5.97;;
74904;SDS011;63465;50.862;6.220;2024-01-30T13:44:09;10.97;;;6.13;;
74904;SDS011;63465;50.862;6.220;2024-01-30T13:46:34;14.53;;;5.67;;
74904;SDS011;63465;50.862;6.220;2024-01-30T13:49:00;14.50;;;4.53;;
74904;SDS011;63465;50.862;6.220;2024-01-30T13:51:26;8.47;;;5.43;;
74904;SDS011;63465;50.862;6.220;2024-01-30T13:53:52;9.43;;;6.03;;
74904;SDS011;63465;50.862;6.220;2024-01-30T13:56:17;12.23;;;6.00;;
74904;SDS011;63465;50.862;6.220;2024-01-30T13:58:43;12.90;;;6.00;;
74904;SDS011;63465;50.862;6.220;2024-01-30T14:01:08;19.10;;;6.97;;
74904;SDS011;63465;50.862;6.220;2024-01-30T14:03:35;11.30;;;6.20;;
74904;SDS011;63465;50.862;6.220;2024-01-30T14:06:00;8.90;;;6.60;;
74904;SDS011;63465;50.862;6.220;2024-01-30T14:08:25;9.10;;;3.83;;
74904;SDS011;63465;50.862;6.220;2024-01-30T14:10:53;15.20;;;5.40;;
74904;SDS011;63465;50.862;6.220;2024-01-30T14:13:18;14.40;;;6.37;;
74904;SDS011;63465;50.862;6.220;2024-01-30T14:15:44;10.97;;;6.80;;
74904;SDS011;63465;50.862;6.220;2024-01-30T14:18:09;13.10;;;7.10;;
74904;SDS011;63465;50.862;6.220;2024-01-30T14:20:36;8.47;;;4.37;;
74904;SDS011;63465;50.862;6.220;2024-01-30T14:23:01;18.30;;;6.30;;
74904;SDS011;63465;50.862;6.220;2024-01-30T14:25:26;10.67;;;5.50;;
74904;SDS011;63465;50.862;6.220;2024-01-30T14:27:52;10.00;;;6.93;;
74904;SDS011;63465;50.862;6.220;2024-01-30T14:30:17;10.40;;;6.20;;
74904;SDS011;63465;50.862;6.220;2024-01-30T14:32:42;10.90;;;6.70;;
74904;SDS011;63465;50.862;6.220;2024-01-30T14:35:09;14.20;;;6.67;;
74904;SDS011;63465;50.862;6.220;2024-01-30T14:37:35;12.10;;;7.07;;